createdAt,value
2018-07-20T22:06:32.093Z,22.35
2018-07-20T22:08:59.648Z,22.25
2018-07-20T22:13:27.741Z,22.12
2018-07-20T22:15:54.510Z,22.06
2018-07-20T22:18:20.964Z,21.99
2018-07-20T22:20:48.053Z,21.89
2018-07-20T22:23:15.938Z,21.83
2018-07-20T22:25:43.849Z,21.77
2018-07-20T22:28:11.446Z,21.76
2018-07-20T22:30:39.408Z,21.82
2018-07-20T22:33:06.070Z,21.83
2018-07-20T22:35:33.422Z,21.83
2018-07-20T22:38:00.176Z,21.78
2018-07-20T22:40:27.152Z,21.79
2018-07-20T22:42:54.164Z,21.80
2018-07-20T22:45:20.905Z,21.76
2018-07-20T22:47:47.390Z,21.71
2018-07-20T22:50:13.848Z,21.72
2018-07-20T22:52:40.301Z,21.67
2018-07-20T22:55:08.707Z,21.66
2018-07-20T22:57:35.505Z,21.66
2018-07-20T23:00:01.978Z,21.64
2018-07-20T23:02:28.427Z,21.62
2018-07-20T23:04:56.568Z,21.61
2018-07-20T23:07:23.020Z,21.62
2018-07-20T23:09:50.157Z,21.65
2018-07-20T23:12:17.936Z,21.61
2018-07-20T23:14:44.412Z,21.59
2018-07-20T23:17:11.879Z,21.49
2018-07-20T23:19:39.245Z,21.43
2018-07-20T23:22:06.015Z,21.35
2018-07-20T23:24:33.386Z,21.26
2018-07-20T23:26:59.848Z,21.19
2018-07-20T23:29:27.238Z,21.07
2018-07-20T23:31:56.889Z,21.00
2018-07-20T23:34:23.373Z,20.91
2018-07-20T23:36:49.841Z,20.80
2018-07-20T23:39:16.326Z,20.69
2018-07-20T23:41:42.793Z,20.59
2018-07-20T23:44:09.278Z,20.48
2018-07-20T23:46:35.762Z,20.41
2018-07-20T23:49:02.500Z,20.34
2018-07-20T23:51:29.059Z,20.34
2018-07-20T23:53:55.502Z,20.33
2018-07-20T23:56:21.953Z,20.24
2018-07-20T23:58:48.750Z,20.13
